createdAt,value
2018-02-25T00:01:46.973Z,28.38
2018-02-25T00:04:18.112Z,19.58
2018-02-25T00:06:50.473Z,26.05
2018-02-25T00:09:24.598Z,26.08
2018-02-25T00:11:56.493Z,18.00
2018-02-25T00:14:27.692Z,29.02
2018-02-25T00:17:00.693Z,23.92
2018-02-25T00:19:34.093Z,23.80
2018-02-25T00:22:08.173Z,22.90
2018-02-25T00:24:43.433Z,24.77
2018-02-25T00:27:15.281Z,21.90
2018-02-25T00:29:46.952Z,26.00
2018-02-25T00:32:20.653Z,22.48
2018-02-25T00:34:51.993Z,29.75
2018-02-25T00:37:25.913Z,24.40
2018-02-25T00:39:58.393Z,24.70
2018-02-25T00:42:33.412Z,21.77
2018-02-25T00:45:07.112Z,23.40
2018-02-25T00:47:41.332Z,25.62
2018-02-25T00:50:13.472Z,19.98
2018-02-25T00:52:48.932Z,18.58
2018-02-25T00:55:21.713Z,23.90
2018-02-25T00:57:56.433Z,25.33
2018-02-25T01:00:28.712Z,21.98
2018-02-25T01:03:03.454Z,22.50
2018-02-25T01:05:40.472Z,26.05
2018-02-25T01:08:12.572Z,23.40
2018-02-25T01:10:45.252Z,22.62
2018-02-25T01:13:16.613Z,20.48
2018-02-25T01:15:47.532Z,22.67
2018-02-25T01:18:20.732Z,20.60
2018-02-25T01:20:52.613Z,21.42
2018-02-25T01:23:24.672Z,20.80
2018-02-25T01:25:56.113Z,15.50
2018-02-25T01:28:28.172Z,20.55
2018-02-25T01:31:02.092Z,18.65
2018-02-25T01:33:33.012Z,17.52
2018-02-25T01:36:04.872Z,20.48
2018-02-25T01:38:35.492Z,16.10
2018-02-25T01:41:06.492Z,16.83
2018-02-25T01:43:40.973Z,20.08
2018-02-25T01:46:12.472Z,15.65
2018-02-25T01:48:44.172Z,18.33
2018-02-25T01:51:15.832Z,14.20
2018-02-25T01:53:47.073Z,17.87
2018-02-25T01:56:21.080Z,19.23
2018-02-25T01:58:53.973Z,20.15
2018-02-25T02:01:26.132Z,18.25
2018-02-25T02:03:58.092Z,21.42
2018-02-25T02:06:30.532Z,19.65
2018-02-25T02:09:02.212Z,17.20
2018-02-25T02:11:34.594Z,18.48
2018-02-25T02:14:13.314Z,16.33
2018-02-25T02:16:44.252Z,17.75
2018-02-25T02:19:17.513Z,16.87
2018-02-25T02:21:49.301Z,21.27
2018-02-25T02:24:25.473Z,19.55
2018-02-25T02:26:58.953Z,18.62
2018-02-25T02:29:30.833Z,18.70
2018-02-25T02:32:06.534Z,20.48
2018-02-25T02:34:42.492Z,21.37
2018-02-25T02:37:14.993Z,15.48
2018-02-25T02:39:46.953Z,15.10
2018-02-25T02:42:18.192Z,22.58
2018-02-25T02:44:49.978Z,17.20
2018-02-25T02:47:20.915Z,17.15
2018-02-25T02:49:52.352Z,19.67
2018-02-25T02:52:25.334Z,18.62
2018-02-25T02:54:59.233Z,21.27
2018-02-25T02:57:30.173Z,21.10
2018-02-25T03:00:03.892Z,18.92
2018-02-25T03:02:35.233Z,18.70
2018-02-25T03:05:06.373Z,18.83
2018-02-25T03:07:37.754Z,15.38
2018-02-25T03:10:09.272Z,16.75
2018-02-25T03:12:40.712Z,20.98
2018-02-25T03:15:12.895Z,22.20
2018-02-25T03:17:45.773Z,20.77
2018-02-25T03:20:17.936Z,19.02
2018-02-25T03:22:49.992Z,19.00
2018-02-25T03:25:21.140Z,16.77
2018-02-25T03:27:51.973Z,15.90
2018-02-25T03:30:23.134Z,17.42
2018-02-25T03:32:55.692Z,19.23
2018-02-25T03:35:28.474Z,18.02
2018-02-25T03:37:58.692Z,16.62
2018-02-25T03:40:31.794Z,19.40
2018-02-25T03:43:05.073Z,21.75
2018-02-25T03:45:37.652Z,18.75
2018-02-25T03:48:15.492Z,18.95
2018-02-25T03:50:49.056Z,20.12
2018-02-25T03:53:22.132Z,17.48
2018-02-25T03:55:55.432Z,18.45
2018-02-25T03:58:26.973Z,17.35
2018-02-25T04:00:59.492Z,19.67
2018-02-25T04:03:34.493Z,15.60
2018-02-25T04:06:06.875Z,20.60
2018-02-25T04:08:39.633Z,18.15
2018-02-25T04:11:13.652Z,17.85
2018-02-25T04:13:45.412Z,15.60
2018-02-25T04:16:18.813Z,15.63
2018-02-25T04:18:50.472Z,15.52
2018-02-25T04:21:22.333Z,16.23
2018-02-25T04:23:53.973Z,17.92
2018-02-25T04:26:25.432Z,18.02
2018-02-25T04:28:58.013Z,14.93
2018-02-25T04:31:35.172Z,17.00
2018-02-25T04:34:09.192Z,15.77
2018-02-25T04:36:41.373Z,19.30
2018-02-25T04:39:19.512Z,19.05
2018-02-25T04:41:52.452Z,16.85
2018-02-25T04:44:23.533Z,19.87
2018-02-25T04:46:55.673Z,17.25
2018-02-25T04:49:26.792Z,15.75
2018-02-25T04:51:58.454Z,13.73
2018-02-25T04:54:28.792Z,15.10
2018-02-25T04:57:06.673Z,17.05
2018-02-25T04:59:37.932Z,15.23
2018-02-25T05:02:10.192Z,16.65
2018-02-25T05:04:48.293Z,15.45
2018-02-25T05:07:20.758Z,19.33
2018-02-25T05:09:52.014Z,14.55
2018-02-25T05:12:23.055Z,13.85
2018-02-25T05:14:54.493Z,17.12
2018-02-25T05:17:24.634Z,15.68
2018-02-25T05:19:57.539Z,18.05
2018-02-25T05:22:30.552Z,18.62
2018-02-25T05:25:02.860Z,16.10
2018-02-25T05:27:34.413Z,18.05
2018-02-25T05:30:08.432Z,14.65
2018-02-25T05:32:44.493Z,17.42
2018-02-25T05:35:18.392Z,16.27
2018-02-25T05:37:50.253Z,14.23
2018-02-25T05:40:23.433Z,14.75
2018-02-25T05:42:56.732Z,14.95
2018-02-25T05:45:34.012Z,12.37
2018-02-25T05:48:05.512Z,17.08
2018-02-25T05:50:36.812Z,13.70
2018-02-25T05:53:08.073Z,18.70
2018-02-25T05:55:39.913Z,21.52
2018-02-25T05:58:14.952Z,20.08
2018-02-25T06:00:51.113Z,16.70
2018-02-25T06:03:24.933Z,16.30
2018-02-25T06:05:55.976Z,15.85
2018-02-25T06:08:27.612Z,17.83
2018-02-25T06:10:58.772Z,17.90
2018-02-25T06:13:31.032Z,21.15
2018-02-25T06:16:02.532Z,17.92
2018-02-25T06:18:34.432Z,15.98
2018-02-25T06:21:06.553Z,16.02
2018-02-25T06:23:41.854Z,18.73
2018-02-25T06:26:14.012Z,19.65
2018-02-25T06:28:48.012Z,16.17
2018-02-25T06:31:19.534Z,17.35
2018-02-25T06:33:50.817Z,16.95
2018-02-25T06:36:22.794Z,26.58
2018-02-25T06:38:55.872Z,20.80
2018-02-25T06:41:29.672Z,19.37
2018-02-25T06:44:01.633Z,21.70
2018-02-25T06:46:34.112Z,16.87
2018-02-25T06:49:05.852Z,20.30
2018-02-25T06:51:37.313Z,15.63
2018-02-25T06:54:19.212Z,21.55
2018-02-25T06:56:53.015Z,18.52
2018-02-25T06:59:26.612Z,17.40
2018-02-25T07:01:59.692Z,17.90
2018-02-25T07:04:31.653Z,16.12
2018-02-25T07:07:06.194Z,19.48
2018-02-25T07:09:43.253Z,21.67
2018-02-25T07:12:14.813Z,15.50
2018-02-25T07:14:47.173Z,19.42
2018-02-25T07:17:19.352Z,19.87
2018-02-25T07:19:54.494Z,20.30
2018-02-25T07:22:27.373Z,16.52
2018-02-25T07:24:59.652Z,21.25
2018-02-25T07:27:31.812Z,16.98
2018-02-25T07:30:03.513Z,20.12
2018-02-25T07:32:35.632Z,18.08
2018-02-25T07:35:07.293Z,19.05
2018-02-25T07:37:40.552Z,21.50
2018-02-25T07:40:13.872Z,24.23
2018-02-25T07:42:45.632Z,21.35
2018-02-25T07:45:21.533Z,20.05
2018-02-25T07:47:54.672Z,22.48
2018-02-25T07:50:27.852Z,22.13
2018-02-25T07:52:59.413Z,16.12
2018-02-25T07:55:30.532Z,20.42
2018-02-25T07:58:02.913Z,19.87
2018-02-25T08:00:39.294Z,20.60
2018-02-25T08:03:11.673Z,21.80
2018-02-25T08:05:42.552Z,24.98
2018-02-25T08:08:13.433Z,23.90
2018-02-25T08:10:46.412Z,26.40
2018-02-25T08:13:18.792Z,19.67
2018-02-25T08:15:50.752Z,24.02
2018-02-25T08:18:24.354Z,19.70
2018-02-25T08:20:55.698Z,25.98
2018-02-25T08:23:29.512Z,15.02
2018-02-25T08:26:01.252Z,25.67
2018-02-25T08:28:32.714Z,22.65
2018-02-25T08:31:05.096Z,23.67
2018-02-25T08:33:36.733Z,21.92
2018-02-25T08:36:11.152Z,21.87
2018-02-25T08:38:42.911Z,19.98
2018-02-25T08:41:15.993Z,21.10
2018-02-25T08:43:48.994Z,23.65
2018-02-25T08:46:25.252Z,20.88
2018-02-25T08:48:58.035Z,22.23
2018-02-25T08:51:29.392Z,23.10
2018-02-25T08:54:00.933Z,21.75
2018-02-25T08:56:32.552Z,23.50
2018-02-25T08:59:03.633Z,21.58
2018-02-25T09:01:37.232Z,19.48
2018-02-25T09:04:11.432Z,20.85
2018-02-25T09:06:46.792Z,20.92
2018-02-25T09:09:18.772Z,26.80
2018-02-25T09:11:49.992Z,17.70
2018-02-25T09:14:23.393Z,23.17
2018-02-25T09:16:56.172Z,24.00
2018-02-25T09:19:27.912Z,22.05
2018-02-25T09:22:01.934Z,23.87
2018-02-25T09:24:34.412Z,21.52
2018-02-25T09:27:05.452Z,21.98
2018-02-25T09:29:36.892Z,25.95
2018-02-25T09:32:09.152Z,24.42
2018-02-25T09:34:41.236Z,22.75
2018-02-25T09:37:12.452Z,23.67
2018-02-25T09:39:43.515Z,22.10
2018-02-25T09:42:19.872Z,26.05
2018-02-25T09:44:52.352Z,23.17
2018-02-25T09:47:24.111Z,20.17
2018-02-25T09:49:56.172Z,23.42
2018-02-25T09:52:29.351Z,24.00
2018-02-25T09:55:03.074Z,21.17
2018-02-25T09:57:34.512Z,25.35
2018-02-25T10:00:05.952Z,24.05
2018-02-25T10:02:38.632Z,20.55
2018-02-25T10:05:10.292Z,24.08
2018-02-25T10:07:43.172Z,22.48
2018-02-25T10:10:16.258Z,22.42
2018-02-25T10:12:52.413Z,26.98
2018-02-25T10:15:24.551Z,26.87
2018-02-25T10:18:01.172Z,24.08
2018-02-25T10:20:34.032Z,26.33
2018-02-25T10:23:06.012Z,21.05
2018-02-25T10:25:37.252Z,25.80
2018-02-25T10:28:09.313Z,22.75
2018-02-25T10:30:40.452Z,26.90
2018-02-25T10:33:10.692Z,23.15
2018-02-25T10:35:42.533Z,24.60
2018-02-25T10:38:14.193Z,22.17
2018-02-25T10:40:49.733Z,26.50
2018-02-25T10:43:22.832Z,26.77
2018-02-25T10:45:54.392Z,27.13
2018-02-25T10:48:26.232Z,21.67
2018-02-25T10:51:02.091Z,24.50
2018-02-25T10:53:34.472Z,21.85
2018-02-25T10:56:06.432Z,21.90
2018-02-25T10:58:38.593Z,25.80
2018-02-25T11:01:14.651Z,26.65
2018-02-25T11:03:52.038Z,22.52
2018-02-25T11:06:23.593Z,25.40
2018-02-25T11:08:54.112Z,25.92
2018-02-25T11:11:26.993Z,27.42
2018-02-25T11:13:59.772Z,29.42
2018-02-25T11:16:32.271Z,25.35
2018-02-25T11:19:04.514Z,26.90
2018-02-25T11:21:40.492Z,23.98
2018-02-25T11:24:12.631Z,24.52
2018-02-25T11:26:45.212Z,25.37
2018-02-25T11:29:17.293Z,24.83
2018-02-25T11:31:49.554Z,22.73
2018-02-25T11:34:20.893Z,25.25
2018-02-25T11:36:52.652Z,22.85
2018-02-25T11:39:30.533Z,28.05
2018-02-25T11:42:04.052Z,25.35
2018-02-25T11:44:35.594Z,25.80
2018-02-25T11:47:09.834Z,23.35
2018-02-25T11:49:43.433Z,23.12
2018-02-25T11:52:17.332Z,26.65
2018-02-25T11:54:49.092Z,27.13
2018-02-25T11:57:21.974Z,23.33
2018-02-25T11:59:54.453Z,25.35
2018-02-25T12:02:25.573Z,23.75
2018-02-25T12:04:56.010Z,18.35
2018-02-25T12:07:27.073Z,25.75
2018-02-25T12:09:59.232Z,19.80
2018-02-25T12:12:30.052Z,23.90
2018-02-25T12:15:01.552Z,22.35
2018-02-25T12:17:34.074Z,15.63
2018-02-25T12:20:04.496Z,25.75
2018-02-25T12:22:35.652Z,23.55
2018-02-25T12:25:07.811Z,17.98
2018-02-25T12:27:38.952Z,24.23
2018-02-25T12:30:14.392Z,25.40
2018-02-25T12:32:46.252Z,23.00
2018-02-25T12:35:17.553Z,20.48
2018-02-25T12:37:52.952Z,22.58
2018-02-25T12:40:26.032Z,23.65
2018-02-25T12:43:01.693Z,24.50
2018-02-25T12:45:34.273Z,26.08
2018-02-25T12:48:06.112Z,20.92
2018-02-25T12:50:38.292Z,24.02
2018-02-25T12:53:10.252Z,24.20
2018-02-25T12:55:41.172Z,21.90
2018-02-25T12:58:12.447Z,22.30
2018-02-25T13:00:44.393Z,23.90
2018-02-25T13:03:19.640Z,27.67
2018-02-25T13:05:51.292Z,21.08
2018-02-25T13:08:22.592Z,24.15
2018-02-25T13:10:54.713Z,23.10
2018-02-25T13:13:26.672Z,22.17
2018-02-25T13:16:00.373Z,22.13
2018-02-25T13:18:33.452Z,20.23
2018-02-25T13:21:05.312Z,17.15
2018-02-25T13:23:36.752Z,19.95
2018-02-25T13:26:09.592Z,21.50
2018-02-25T13:28:43.352Z,19.85
2018-02-25T13:31:17.053Z,18.08
2018-02-25T13:33:48.815Z,21.92
2018-02-25T13:36:24.952Z,24.45
2018-02-25T13:38:58.153Z,19.55
2018-02-25T13:41:30.614Z,17.55
2018-02-25T13:44:01.673Z,17.12
2018-02-25T13:46:36.913Z,23.80
2018-02-25T13:49:08.973Z,17.92
2018-02-25T13:51:41.352Z,18.95
2018-02-25T13:54:14.112Z,15.80
2018-02-25T13:56:47.112Z,15.80
2018-02-25T13:59:18.754Z,16.33
2018-02-25T14:01:53.092Z,19.10
2018-02-25T14:04:27.492Z,19.50
2018-02-25T14:06:58.591Z,21.42
2018-02-25T14:09:30.292Z,18.20
2018-02-25T14:12:01.954Z,23.05
2018-02-25T14:14:34.338Z,18.23
2018-02-25T14:17:06.553Z,21.70
2018-02-25T14:19:48.552Z,14.50
2018-02-25T14:22:21.553Z,15.00
2018-02-25T14:24:53.533Z,16.92
2018-02-25T14:27:24.072Z,16.23
2018-02-25T14:29:56.132Z,20.50
2018-02-25T14:32:30.032Z,20.33
2018-02-25T14:35:01.292Z,20.25
2018-02-25T14:37:31.912Z,17.52
2018-02-25T14:40:03.056Z,16.83
2018-02-25T14:42:34.812Z,13.95
2018-02-25T14:45:06.673Z,13.35
2018-02-25T14:47:45.572Z,16.08
2018-02-25T14:50:20.012Z,16.80
2018-02-25T14:52:51.254Z,15.20
2018-02-25T14:55:23.213Z,20.20
2018-02-25T14:57:56.312Z,20.12
2018-02-25T15:00:29.191Z,12.73
2018-02-25T15:03:01.052Z,15.65
2018-02-25T15:05:32.573Z,19.00
2018-02-25T15:08:04.573Z,11.45
2018-02-25T15:10:35.193Z,19.98
2018-02-25T15:13:07.577Z,18.12
2018-02-25T15:15:39.552Z,16.25
2018-02-25T15:18:15.573Z,11.77
2018-02-25T15:20:49.495Z,17.37
2018-02-25T15:23:21.033Z,20.50
2018-02-25T15:25:51.872Z,15.95
2018-02-25T15:28:22.834Z,13.82
2018-02-25T15:30:58.253Z,16.67
2018-02-25T15:33:29.513Z,16.37
2018-02-25T15:36:01.353Z,15.82
2018-02-25T15:38:35.572Z,14.45
2018-02-25T15:41:08.252Z,14.80
2018-02-25T15:43:39.494Z,14.30
2018-02-25T15:46:14.133Z,13.68
2018-02-25T15:48:46.592Z,10.45
2018-02-25T15:51:18.272Z,14.55
2018-02-25T15:53:50.232Z,14.75
2018-02-25T15:56:23.214Z,13.77
2018-02-25T15:58:55.472Z,11.35
2018-02-25T16:01:26.579Z,12.80
2018-02-25T16:03:58.792Z,13.20
2018-02-25T16:06:30.951Z,14.05
2018-02-25T16:09:02.292Z,11.85
2018-02-25T16:11:36.412Z,15.23
2018-02-25T16:14:08.473Z,13.68
2018-02-25T16:16:41.552Z,13.32
2018-02-25T16:19:14.573Z,14.60
2018-02-25T16:21:46.574Z,12.63
2018-02-25T16:24:17.333Z,11.32
2018-02-25T16:26:49.716Z,15.07
2018-02-25T16:29:21.972Z,14.20
2018-02-25T16:31:53.113Z,11.27
2018-02-25T16:34:25.193Z,11.60
2018-02-25T16:36:56.953Z,14.95
2018-02-25T16:39:28.394Z,11.20
2018-02-25T16:42:01.992Z,14.40
2018-02-25T16:44:33.953Z,9.48
2018-02-25T16:47:08.074Z,14.73
2018-02-25T16:49:40.034Z,20.27
2018-02-25T16:52:12.513Z,14.02
2018-02-25T16:54:45.173Z,14.95
2018-02-25T16:57:15.912Z,14.32
2018-02-25T16:59:47.255Z,12.48
2018-02-25T17:02:22.292Z,12.70
2018-02-25T17:04:54.632Z,13.62
2018-02-25T17:07:25.813Z,16.35
2018-02-25T17:10:02.594Z,12.65
2018-02-25T17:12:36.092Z,13.45
2018-02-25T17:15:08.252Z,12.77
2018-02-25T17:17:40.014Z,15.02
2018-02-25T17:20:12.373Z,12.43
2018-02-25T17:22:44.532Z,13.62
2018-02-25T17:25:17.736Z,15.00
2018-02-25T17:27:49.894Z,12.50
2018-02-25T17:30:21.593Z,12.50
2018-02-25T17:32:53.514Z,13.43
2018-02-25T17:35:25.633Z,16.87
2018-02-25T17:37:56.735Z,9.48
2018-02-25T17:40:28.173Z,14.00
2018-02-25T17:43:00.553Z,13.27
2018-02-25T17:45:31.692Z,12.27
2018-02-25T17:48:03.953Z,11.25
2018-02-25T17:50:36.014Z,13.05
2018-02-25T17:53:07.612Z,12.23
2018-02-25T17:55:40.474Z,14.93
2018-02-25T17:58:10.673Z,16.50
2018-02-25T18:00:45.613Z,13.43
2018-02-25T18:03:17.993Z,14.95
2018-02-25T18:05:51.593Z,15.20
2018-02-25T18:08:23.612Z,10.68
2018-02-25T18:10:55.912Z,12.37
2018-02-25T18:13:28.913Z,13.75
2018-02-25T18:16:00.134Z,11.40
2018-02-25T18:18:31.993Z,13.55
2018-02-25T18:21:03.852Z,17.15
2018-02-25T18:23:37.052Z,16.00
2018-02-25T18:26:08.193Z,13.23
2018-02-25T18:28:41.075Z,13.48
2018-02-25T18:31:13.132Z,14.82
2018-02-25T18:33:46.372Z,11.23
2018-02-25T18:36:17.274Z,13.93
2018-02-25T18:38:48.592Z,17.42
2018-02-25T18:41:20.273Z,14.00
2018-02-25T18:43:51.834Z,11.65
2018-02-25T18:46:31.173Z,12.98
2018-02-25T18:49:02.714Z,13.75
2018-02-25T18:51:33.852Z,14.50
2018-02-25T18:54:06.432Z,15.07
2018-02-25T18:56:39.113Z,14.63
2018-02-25T18:59:10.873Z,16.70
2018-02-25T19:01:42.732Z,14.23
2018-02-25T19:04:16.587Z,16.08
2018-02-25T19:06:49.234Z,11.30
2018-02-25T19:09:21.472Z,14.87
2018-02-25T19:11:54.633Z,11.23
2018-02-25T19:14:31.612Z,16.92
2018-02-25T19:17:03.292Z,16.15
2018-02-25T19:19:34.634Z,11.12
2018-02-25T19:22:07.014Z,13.00
2018-02-25T19:24:39.292Z,12.27
2018-02-25T19:27:11.353Z,16.20
2018-02-25T19:29:44.233Z,12.77
2018-02-25T19:32:19.173Z,12.90
2018-02-25T19:34:50.117Z,13.93
2018-02-25T19:37:28.212Z,14.02
2018-02-25T19:40:04.173Z,13.20
2018-02-25T19:42:35.912Z,14.45
2018-02-25T19:45:08.192Z,13.95
2018-02-25T19:47:41.273Z,16.80
2018-02-25T19:50:21.615Z,12.68
2018-02-25T19:52:54.612Z,13.70
2018-02-25T19:55:32.433Z,18.12
2018-02-25T19:58:03.576Z,13.73
2018-02-25T20:00:35.532Z,13.98
2018-02-25T20:03:06.373Z,16.95
2018-02-25T20:05:37.814Z,13.62
2018-02-25T20:08:08.432Z,16.52
2018-02-25T20:10:40.913Z,14.68
2018-02-25T20:13:18.713Z,17.48
2018-02-25T20:15:50.573Z,16.67
2018-02-25T20:18:25.716Z,17.83
2018-02-25T20:20:56.753Z,18.55
2018-02-25T20:23:28.911Z,14.55
2018-02-25T20:26:04.051Z,16.77
2018-02-25T20:28:35.591Z,12.93
2018-02-25T20:31:06.531Z,14.55
2018-02-25T20:33:37.472Z,16.75
2018-02-25T20:36:09.431Z,17.20
2018-02-25T20:38:45.594Z,16.35
2018-02-25T20:41:16.332Z,14.30
2018-02-25T20:43:48.291Z,11.60
2018-02-25T20:46:20.051Z,17.33
2018-02-25T20:48:59.610Z,17.83
2018-02-25T20:51:31.150Z,15.98
2018-02-25T20:54:09.612Z,14.87
2018-02-25T20:56:44.611Z,15.27
2018-02-25T20:59:16.851Z,13.80
2018-02-25T21:01:48.412Z,16.33
2018-02-25T21:04:21.611Z,11.95
2018-02-25T21:06:53.879Z,17.17
2018-02-25T21:09:26.570Z,16.40
2018-02-25T21:11:57.791Z,15.75
2018-02-25T21:14:29.150Z,16.73
2018-02-25T21:17:01.411Z,19.02
2018-02-25T21:19:32.151Z,11.73
2018-02-25T21:22:04.711Z,19.90
2018-02-25T21:24:37.095Z,14.30
2018-02-25T21:27:15.612Z,15.60
2018-02-25T21:29:47.351Z,17.55
2018-02-25T21:32:20.871Z,14.05
2018-02-25T21:34:53.130Z,16.80
2018-02-25T21:37:25.091Z,18.83
2018-02-25T21:39:57.051Z,14.07
2018-02-25T21:42:28.631Z,18.33
2018-02-25T21:45:02.092Z,11.65
2018-02-25T21:47:36.012Z,13.45
2018-02-25T21:50:08.634Z,16.15
2018-02-25T21:52:46.596Z,16.42
2018-02-25T21:55:18.956Z,14.02
2018-02-25T21:57:55.930Z,16.37
2018-02-25T22:00:33.431Z,18.60
2018-02-25T22:03:11.010Z,15.88
2018-02-25T22:05:43.591Z,20.60
2018-02-25T22:08:15.033Z,13.55
2018-02-25T22:10:46.611Z,14.43
2018-02-25T22:13:20.912Z,13.38
2018-02-25T22:15:54.931Z,16.17
2018-02-25T22:18:25.850Z,15.43
2018-02-25T22:20:57.011Z,16.77
2018-02-25T22:23:28.350Z,17.00
2018-02-25T22:25:59.493Z,12.98
2018-02-25T22:28:31.771Z,17.75
2018-02-25T22:31:04.031Z,14.57
2018-02-25T22:33:35.490Z,16.17
2018-02-25T22:36:06.732Z,14.85
2018-02-25T22:38:38.651Z,14.02
2018-02-25T22:41:10.851Z,14.90
2018-02-25T22:43:45.591Z,12.98
2018-02-25T22:46:19.814Z,15.73
2018-02-25T22:48:50.950Z,13.57
2018-02-25T22:51:22.791Z,12.95
2018-02-25T22:53:54.731Z,15.52
2018-02-25T22:56:27.631Z,15.80
2018-02-25T22:58:58.590Z,19.35
2018-02-25T23:01:31.190Z,17.60
2018-02-25T23:04:05.071Z,14.35
2018-02-25T23:06:36.931Z,16.62
2018-02-25T23:09:10.311Z,17.05
2018-02-25T23:11:44.730Z,18.50
2018-02-25T23:14:16.590Z,16.30
2018-02-25T23:16:54.191Z,16.33
2018-02-25T23:19:24.810Z,16.58
2018-02-25T23:21:58.311Z,14.27
2018-02-25T23:24:30.391Z,14.85
2018-02-25T23:27:02.351Z,16.62
2018-02-25T23:29:36.050Z,16.17
2018-02-25T23:32:13.730Z,10.45
2018-02-25T23:34:44.791Z,11.65
2018-02-25T23:37:16.750Z,19.45
2018-02-25T23:39:47.990Z,16.00
2018-02-25T23:42:26.510Z,11.90
2018-02-25T23:44:58.791Z,13.65
2018-02-25T23:47:30.331Z,18.35
2018-02-25T23:50:03.093Z,12.25
2018-02-25T23:52:34.459Z,17.85
2018-02-25T23:55:12.152Z,17.33
2018-02-25T23:57:43.651Z,13.70
